Time;durP1;ratioP1;P1;durP2;ratioP2;P2;SDS_P1;SDS_P2;PMS_P1;PMS_P2;Temp;Humidity;BMP_temperature;BMP_pressure;BME280_temperature;BME280_humidity;BME280_pressure;Samples;Min_cycle;Max_cycle;Signal;HPM_P1;HPM_P2
2023/04/04 00:00:06;;;;;;;11.43;4.60;;;;;;;-0.97;92.79;102865.19;5055485;28;20021;-56
2023/04/04 00:02:32;;;;;;;8.02;4.50;;;;;;;-1.02;93.66;102870.66;5054670;28;20045;-57
2023/04/04 00:04:57;;;;;;;7.68;4.40;;;;;;;-0.98;94.02;102868.44;5054783;28;20025;-57
2023/04/04 00:07:24;;;;;;;8.68;4.47;;;;;;;-0.99;93.78;102872.63;5054761;28;20576;-57
2023/04/04 00:09:49;;;;;;;7.72;4.35;;;;;;;-1.14;93.73;102874.38;5055295;28;20100;-57
2023/04/04 00:12:15;;;;;;;8.40;4.80;;;;;;;-1.06;94.62;102876.13;5054814;28;20036;-56
2023/04/04 00:14:40;;;;;;;8.95;4.88;;;;;;;-1.09;94.63;102880.81;5054702;28;20033;-56
2023/04/04 00:17:05;;;;;;;8.52;4.80;;;;;;;-1.06;94.42;102883.72;5054660;28;20443;-56
2023/04/04 00:19:31;;;;;;;8.38;4.28;;;;;;;-1.22;95.12;102878.59;5054963;28;20044;-56
2023/04/04 00:21:56;;;;;;;9.98;5.40;;;;;;;-1.11;95.94;102878.88;5054293;28;20029;-56
2023/04/04 00:24:21;;;;;;;11.90;4.97;;;;;;;-0.94;94.96;102878.16;5054892;28;20032;-56
2023/04/04 00:26:47;;;;;;;7.72;4.60;;;;;;;-0.97;93.70;102875.31;5055054;28;20017;-56
2023/04/04 00:29:12;;;;;;;9.93;4.72;;;;;;;-0.98;92.98;102876.03;5054533;28;20029;-56
2023/04/04 00:31:38;;;;;;;11.63;4.90;;;;;;;-0.91;92.52;102876.88;5054799;28;20025;-56
2023/04/04 00:34:03;;;;;;;10.55;4.88;;;;;;;-1.01;93.31;102881.66;5054532;28;20064;-55
2023/04/04 00:36:28;;;;;;;8.70;4.93;;;;;;;-1.07;93.52;102879.38;5054138;28;20056;-56
2023/04/04 00:38:53;;;;;;;8.45;4.20;;;;;;;-1.10;94.20;102879.03;5054189;28;20025;-56
2023/04/04 00:41:19;;;;;;;9.00;5.38;;;;;;;-1.12;93.56;102880.50;5054600;28;20048;-56
2023/04/04 00:43:45;;;;;;;10.00;4.72;;;;;;;-1.12;94.20;102879.59;5054294;28;20047;-56
2023/04/04 00:46:13;;;;;;;7.28;4.68;;;;;;;-1.24;94.57;102875.00;5054230;28;20029;-56
2023/04/04 00:48:40;;;;;;;9.25;5.10;;;;;;;-1.08;93.98;102880.09;5054518;28;20032;-56
2023/04/04 00:51:06;;;;;;;9.07;4.90;;;;;;;-0.91;93.02;102881.94;5053741;28;20037;-56
2023/04/04 00:53:31;;;;;;;10.45;5.05;;;;;;;-0.93;92.57;102874.91;5054210;28;20029;-56
2023/04/04 00:55:56;;;;;;;9.05;4.80;;;;;;;-0.94;92.04;102880.69;5053832;28;20041;-56
2023/04/04 00:58:23;;;;;;;9.05;4.18;;;;;;;-1.06;92.57;102880.25;5053832;28;20021;-56
2023/04/04 01:00:49;;;;;;;8.13;4.57;;;;;;;-1.05;92.87;102877.00;5054284;28;20045;-56
2023/04/04 01:03:14;;;;;;;11.05;5.00;;;;;;;-1.11;93.74;102878.88;5053793;28;20083;-56
2023/04/04 01:05:40;;;;;;;9.48;4.90;;;;;;;-1.10;94.33;102881.56;5053775;28;20052;-56
2023/04/04 01:08:08;;;;;;;10.68;4.85;;;;;;;-1.13;93.55;102883.75;5053510;28;20036;-56
2023/04/04 01:10:34;;;;;;;10.30;5.05;;;;;;;-1.01;93.39;102880.06;5053093;28;20025;-56
2023/04/04 01:13:00;;;;;;;8.18;5.22;;;;;;;-1.02;94.71;102878.25;5053674;28;20025;-56
2023/04/04 01:15:25;;;;;;;7.28;4.60;;;;;;;-0.88;94.53;102861.13;5053942;28;20021;-56
2023/04/04 01:17:54;;;;;;;7.18;4.65;;;;;;;-0.85;94.99;102861.47;5053538;28;20040;-56
2023/04/04 01:20:24;;;;;;;9.65;4.38;;;;;;;-0.89;93.99;102865.28;5053846;28;20092;-56
2023/04/04 01:22:52;;;;;;;8.52;4.82;;;;;;;-0.87;94.27;102853.69;5053906;28;20111;-55
2023/04/04 01:25:18;;;;;;;;;;;;;;;-0.87;93.70;102857.84;5053446;28;20151;-56
2023/04/04 01:27:43;;;;;;;10.55;5.10;;;;;;;-0.93;94.38;102852.13;5053456;28;19995;-57
2023/04/04 01:30:10;;;;;;;9.57;5.05;;;;;;;-0.93;95.58;102852.13;5053601;28;20028;-56
2023/04/04 01:32:42;;;;;;;9.20;4.70;;;;;;;-1.19;95.30;102852.72;5053046;28;20107;-56
2023/04/04 01:35:37;;;;;;;11.30;4.50;;;;;;;-1.15;94.24;102849.78;5053119;28;20025;-56
2023/04/04 01:38:31;;;;;;;8.20;4.82;;;;;;;-1.04;95.11;102854.38;5053240;28;20068;-56
2023/04/04 01:41:01;;;;;;;8.98;4.60;;;;;;;-1.04;94.24;102854.38;5052356;28;20465;-56
2023/04/04 01:43:29;;;;;;;9.40;4.68;;;;;;;-1.19;93.71;102845.13;5053705;28;20025;-56
2023/04/04 01:45:55;;;;;;;10.27;4.97;;;;;;;-1.17;92.81;102848.75;5052505;28;20162;-56
2023/04/04 01:48:21;;;;;;;11.75;5.28;;;;;;;-1.09;93.02;102850.47;5053315;28;20080;-56
2023/04/04 01:50:46;;;;;;;8.98;4.90;;;;;;;-1.25;92.82;102844.44;5053476;28;20029;-56
2023/04/04 01:53:11;;;;;;;7.32;4.75;;;;;;;-1.35;93.94;102845.97;5052971;28;20043;-56
2023/04/04 01:55:37;;;;;;;8.10;4.90;;;;;;;-1.41;93.97;102845.28;5053093;28;20036;-56
2023/04/04 01:58:02;;;;;;;8.88;4.82;;;;;;;-1.43;94.71;102841.72;5052981;28;20017;-56
2023/04/04 02:00:27;;;;;;;10.60;4.70;;;;;;;-1.33;95.16;102833.50;5052767;28;20024;-56
2023/04/04 02:02:53;;;;;;;9.60;4.68;;;;;;;-1.27;94.51;102839.22;5052805;28;20396;-56
2023/04/04 02:05:18;;;;;;;15.00;5.50;;;;;;;-1.31;94.26;102837.09;5053010;28;20226;-56
2023/04/04 02:07:48;;;;;;;10.55;5.07;;;;;;;-1.51;94.88;102847.53;5052733;28;20099;-56
2023/04/04 02:10:13;;;;;;;9.25;5.10;;;;;;;-1.69;95.54;102842.25;5052546;28;20033;-56
2023/04/04 02:12:39;;;;;;;11.50;5.38;;;;;;;-1.73;96.53;102845.19;5052839;28;20400;-56
2023/04/04 02:15:05;;;;;;;9.10;4.85;;;;;;;-1.91;97.44;102849.09;5052061;28;20060;-56
2023/04/04 02:17:31;;;;;;;7.55;4.75;;;;;;;-1.92;97.11;102843.88;5052650;28;20025;-56
2023/04/04 02:19:56;;;;;;;8.57;4.80;;;;;;;-1.89;98.05;102846.72;5052150;28;20350;-56
2023/04/04 02:22:22;;;;;;;7.65;4.53;;;;;;;-1.99;98.21;102850.75;5052056;28;20046;-56
2023/04/04 02:24:47;;;;;;;6.75;5.10;;;;;;;-2.06;98.61;102854.94;5052675;28;20384;-56
2023/04/04 02:27:13;;;;;;;9.13;5.10;;;;;;;-2.15;99.06;102857.31;5052541;28;20067;-56
2023/04/04 02:29:38;;;;;;;10.02;5.50;;;;;;;-2.17;99.81;102868.88;5052307;28;20021;-56
2023/04/04 02:32:03;;;;;;;9.85;5.25;;;;;;;-2.26;100.00;102867.81;5052120;28;20032;-56
2023/04/04 02:34:28;;;;;;;8.45;5.60;;;;;;;-2.24;100.00;102868.91;5052919;28;20106;-56
2023/04/04 02:36:54;;;;;;;11.05;6.00;;;;;;;-2.36;100.00;102871.84;5052100;28;20032;-56
2023/04/04 02:39:19;;;;;;;9.02;5.63;;;;;;;-2.24;100.00;102867.28;5052499;28;20100;-56
2023/04/04 02:41:45;;;;;;;10.05;6.05;;;;;;;-2.09;100.00;102857.09;5052848;28;20052;-56
2023/04/04 02:44:10;;;;;;;9.85;5.95;;;;;;;-2.14;100.00;102861.66;5051705;28;20028;-56
2023/04/04 02:46:36;;;;;;;10.98;6.13;;;;;;;-2.17;100.00;102862.22;5052611;28;20075;-56
2023/04/04 02:49:02;;;;;;;11.43;6.18;;;;;;;-2.01;100.00;102859.78;5051785;28;20017;-56
2023/04/04 02:51:27;;;;;;;10.82;5.95;;;;;;;-2.08;99.46;102851.31;5052372;28;20028;-56
2023/04/04 02:53:53;;;;;;;9.50;5.88;;;;;;;-1.88;99.01;102844.34;5052361;28;20385;-56
2023/04/04 02:56:18;;;;;;;9.48;5.85;;;;;;;-1.94;98.42;102847.84;5051894;28;20035;-56
2023/04/04 02:58:43;;;;;;;8.50;5.32;;;;;;;-1.97;98.32;102844.97;5052128;28;20060;-56
2023/04/04 03:01:09;;;;;;;10.05;6.30;;;;;;;-2.02;98.20;102845.34;5052391;28;20504;-57
2023/04/04 03:03:34;;;;;;;9.15;5.60;;;;;;;-2.14;98.67;102849.03;5051708;28;20380;-56
2023/04/04 03:05:59;;;;;;;10.07;5.72;;;;;;;-2.25;99.25;102850.31;5052009;28;20025;-56
2023/04/04 03:08:26;;;;;;;10.65;5.90;;;;;;;-2.13;99.82;102854.97;5052759;28;20362;-56
2023/04/04 03:10:52;;;;;;;10.43;5.65;;;;;;;-2.18;100.00;102842.72;5051915;28;20028;-56
2023/04/04 03:13:17;;;;;;;9.77;6.10;;;;;;;-2.27;99.67;102853.38;5051826;28;20025;-56
2023/04/04 03:15:43;;;;;;;7.93;5.32;;;;;;;-2.36;100.00;102850.75;5052152;28;20065;-57
2023/04/04 03:18:08;;;;;;;9.52;5.70;;;;;;;-2.37;100.00;102854.88;5051580;28;20055;-56
2023/04/04 03:20:34;;;;;;;9.43;6.00;;;;;;;-2.31;100.00;102857.22;5052237;28;20465;-56
2023/04/04 03:22:59;;;;;;;8.65;5.90;;;;;;;-2.34;100.00;102851.81;5052022;28;20418;-56
2023/04/04 03:25:24;;;;;;;10.27;5.90;;;;;;;-2.38;100.00;102847.13;5051719;28;20107;-56
2023/04/04 03:27:50;;;;;;;9.30;5.97;;;;;;;-2.45;100.00;102855.63;5051967;28;20546;-56
2023/04/04 03:30:15;;;;;;;9.18;5.95;;;;;;;-2.38;100.00;102854.72;5051696;28;20025;-56
2023/04/04 03:32:41;;;;;;;9.07;6.70;;;;;;;-2.36;100.00;102849.09;5053595;28;20033;-56
2023/04/04 03:35:06;;;;;;;9.32;5.72;;;;;;;-2.33;100.00;102836.81;5055314;28;20021;-56
2023/04/04 03:37:32;;;;;;;10.93;6.53;;;;;;;-2.24;100.00;102841.13;5055627;28;20033;-56
2023/04/04 03:39:57;;;;;;;10.57;6.43;;;;;;;-2.36;100.00;102835.59;5054925;28;20033;-56
2023/04/04 03:42:22;;;;;;;10.45;6.18;;;;;;;-2.34;100.00;102840.09;5055534;28;20464;-56
2023/04/04 03:44:48;;;;;;;15.40;6.57;;;;;;;-2.36;100.00;102836.47;5055716;28;20020;-56
2023/04/04 03:47:13;;;;;;;11.60;6.25;;;;;;;-2.39;100.00;102828.56;5054885;28;20827;-56
2023/04/04 03:49:38;;;;;;;9.73;6.20;;;;;;;-2.46;100.00;102828.59;5055730;28;20035;-56
2023/04/04 03:52:04;;;;;;;9.73;6.03;;;;;;;-2.38;100.00;102822.75;5055308;28;20067;-56
2023/04/04 03:54:29;;;;;;;9.45;5.70;;;;;;;-2.40;100.00;102821.72;5054867;28;20084;-56
2023/04/04 03:56:56;;;;;;;11.77;6.22;;;;;;;-2.43;100.00;102817.94;5055245;28;20044;-57
2023/04/04 03:59:21;;;;;;;12.15;6.47;;;;;;;-2.48;100.00;102814.88;5054825;28;20393;-56
2023/04/04 04:01:47;;;;;;;11.40;6.70;;;;;;;-2.50;100.00;102821.38;5054936;28;20052;-56
2023/04/04 04:04:12;;;;;;;10.23;5.65;;;;;;;-2.68;100.00;102821.06;5055188;28;20031;-56
2023/04/04 04:06:38;;;;;;;9.52;5.60;;;;;;;-2.80;100.00;102827.25;5054910;28;20806;-56
2023/04/04 04:09:03;;;;;;;10.63;5.82;;;;;;;-2.89;100.00;102836.25;5054717;28;20016;-56
2023/04/04 04:11:28;;;;;;;9.57;6.43;;;;;;;-2.79;100.00;102834.06;5055296;28;20025;-56
2023/04/04 04:13:54;;;;;;;7.85;3.35;;;;;;;-2.74;100.00;102832.97;5054298;28;20025;-56
2023/04/04 04:16:20;;;;;;;9.20;5.88;;;;;;;-2.79;100.00;102830.66;5055059;28;20103;-56
2023/04/04 04:18:46;;;;;;;9.90;6.35;;;;;;;-2.82;100.00;102831.22;5055286;28;20021;-56
2023/04/04 04:21:11;;;;;;;10.32;6.65;;;;;;;-2.79;100.00;102825.63;5054317;28;20032;-56
2023/04/04 04:23:37;;;;;;;12.52;7.15;;;;;;;-2.78;100.00;102820.75;5054748;28;20025;-56
2023/04/04 04:26:02;;;;;;;9.65;6.47;;;;;;;-2.79;100.00;102826.50;5054717;28;20018;-56
2023/04/04 04:28:27;;;;;;;9.05;6.38;;;;;;;-2.81;100.00;102818.75;5054297;28;20032;-56
2023/04/04 04:30:53;;;;;;;10.73;6.40;;;;;;;-2.86;100.00;102807.22;5054557;28;20404;-56
2023/04/04 04:33:18;;;;;;;12.10;6.57;;;;;;;-2.92;100.00;102819.13;5054850;28;20025;-56
2023/04/04 04:35:43;;;;;;;10.50;6.68;;;;;;;-3.00;100.00;102827.44;5054188;28;20025;-56
2023/04/04 04:38:09;;;;;;;9.65;6.30;;;;;;;-3.10;100.00;102822.94;5054354;28;20500;-57
2023/04/04 04:40:35;;;;;;;10.82;6.82;;;;;;;-3.18;100.00;102828.72;5054798;28;20533;-56
2023/04/04 04:43:01;;;;;;;11.25;6.57;;;;;;;-3.16;100.00;102824.78;5053431;28;20021;-56
2023/04/04 04:45:26;;;;;;;13.80;6.85;;;;;;;-3.07;100.00;102815.75;5053631;28;20021;-56
2023/04/04 04:47:52;;;;;;;13.48;6.97;;;;;;;-3.23;100.00;102817.22;5054512;28;20012;-56
2023/04/04 04:50:17;;;;;;;10.65;6.75;;;;;;;-3.26;100.00;102822.78;5053572;28;20036;-56
2023/04/04 04:52:43;;;;;;;8.80;5.97;;;;;;;-3.27;100.00;102836.13;5054342;28;20025;-56
2023/04/04 04:55:09;;;;;;;10.98;7.07;;;;;;;-3.22;100.00;102839.19;5054225;28;20029;-56
2023/04/04 04:57:35;;;;;;;12.55;7.75;;;;;;;-3.24;100.00;102844.06;5053743;28;20424;-56
2023/04/04 05:00:00;;;;;;;12.15;7.07;;;;;;;-3.18;100.00;102839.72;5053885;28;20506;-56
2023/04/04 05:02:26;;;;;;;10.15;6.80;;;;;;;-3.14;100.00;102848.53;5054068;28;20049;-56
2023/04/04 05:04:52;;;;;;;9.82;7.45;;;;;;;-3.18;100.00;102851.44;5053545;28;20027;-56
2023/04/04 05:07:17;;;;;;;9.30;4.07;;;;;;;-3.09;100.00;102857.53;5053870;28;20366;-56
2023/04/04 05:09:42;;;;;;;7.30;3.97;;;;;;;-3.07;100.00;102853.59;5053889;28;20036;-56
2023/04/04 05:12:08;;;;;;;11.98;6.90;;;;;;;-3.06;100.00;102857.94;5053643;28;20049;-56
2023/04/04 05:14:33;;;;;;;12.23;7.85;;;;;;;-2.99;100.00;102855.38;5053909;28;20472;-56
2023/04/04 05:16:58;;;;;;;12.50;7.90;;;;;;;-2.94;100.00;102844.91;5053379;28;20040;-56
2023/04/04 05:19:24;;;;;;;12.90;7.97;;;;;;;-2.89;100.00;102856.44;5053703;28;20025;-56
2023/04/04 05:21:49;;;;;;;11.18;7.22;;;;;;;-2.87;100.00;102853.38;5053867;28;20083;-56
2023/04/04 05:24:16;;;;;;;12.82;7.70;;;;;;;-2.87;100.00;102853.38;5052956;28;20033;-56
2023/04/04 05:26:41;;;;;;;12.48;7.88;;;;;;;-2.73;100.00;102847.41;5053625;28;20028;-56
2023/04/04 05:29:07;;;;;;;12.23;8.00;;;;;;;-2.85;100.00;102851.06;5053303;28;20024;-56
2023/04/04 05:31:32;;;;;;;12.15;8.00;;;;;;;-2.93;100.00;102851.75;5053456;28;20024;-56
2023/04/04 05:33:58;;;;;;;12.63;7.80;;;;;;;-2.91;100.00;102850.34;5053193;28;20349;-56
2023/04/04 05:36:23;;;;;;;11.80;7.25;;;;;;;-2.89;100.00;102848.88;5053712;28;20494;-56
2023/04/04 05:38:48;;;;;;;14.23;8.13;;;;;;;-2.94;100.00;102855.00;5053173;28;20032;-56
2023/04/04 05:41:14;;;;;;;11.68;7.30;;;;;;;-3.04;100.00;102858.97;5052944;28;20033;-56
2023/04/04 05:43:39;;;;;;;14.20;8.30;;;;;;;-3.02;100.00;102862.59;5053516;28;20021;-56
2023/04/04 05:46:05;;;;;;;11.48;7.75;;;;;;;-2.92;100.00;102861.16;5052570;28;20064;-56
2023/04/04 05:48:30;;;;;;;12.32;8.20;;;;;;;-2.87;100.00;102857.53;5053246;28;20103;-56
2023/04/04 05:50:55;;;;;;;14.77;8.27;;;;;;;-2.90;100.00;102857.19;5053158;28;20021;-56
2023/04/04 05:53:21;;;;;;;13.23;7.75;;;;;;;-2.87;100.00;102867.63;5052737;28;20535;-56
2023/04/04 05:55:50;;;;;;;14.00;8.55;;;;;;;-2.78;100.00;102867.81;5052987;28;20021;-56
2023/04/04 05:58:15;;;;;;;13.00;8.48;;;;;;;-2.68;100.00;102870.66;5052841;28;20021;-56
2023/04/04 06:00:41;;;;;;;13.15;8.95;;;;;;;-2.67;100.00;102873.34;5052622;28;20032;-56
2023/04/04 06:03:06;;;;;;;8.93;4.68;;;;;;;-2.59;100.00;102870.84;5052674;28;20040;-56
2023/04/04 06:05:32;;;;;;;15.30;9.02;;;;;;;-2.53;100.00;102863.94;5053200;28;20029;-56
2023/04/04 06:07:57;;;;;;;15.05;8.95;;;;;;;-2.45;100.00;102870.78;5052144;28;20032;-57
2023/04/04 06:10:22;;;;;;;13.32;9.02;;;;;;;-2.40;100.00;102869.69;5053235;28;20029;-56
2023/04/04 06:12:47;;;;;;;13.63;9.30;;;;;;;-2.30;100.00;102863.16;5052887;28;20021;-56
2023/04/04 06:15:13;;;;;;;14.77;9.93;;;;;;;-2.26;100.00;102867.81;5051717;28;20505;-56
2023/04/04 06:17:38;;;;;;;14.20;9.50;;;;;;;-2.19;100.00;102865.28;5052831;28;20021;-56
2023/04/04 06:20:04;;;;;;;15.63;9.30;;;;;;;-2.16;100.00;102871.59;5052020;28;20108;-58
2023/04/04 06:22:30;;;;;;;13.43;9.93;;;;;;;-2.09;100.00;102870.66;5052527;28;20033;-57
2023/04/04 06:24:56;;;;;;;15.52;10.52;;;;;;;-2.03;100.00;102873.88;5052482;28;20044;-57
2023/04/04 06:27:21;;;;;;;13.35;9.63;;;;;;;-1.91;100.00;102879.41;5052289;28;20021;-57
2023/04/04 06:29:46;;;;;;;16.30;11.23;;;;;;;-1.80;100.00;102878.06;5052684;28;20021;-57
2023/04/04 06:32:12;;;;;;;14.45;10.35;;;;;;;-1.76;100.00;102877.69;5052553;28;20029;-57
2023/04/04 06:34:37;;;;;;;11.30;9.45;;;;;;;-1.64;100.00;102887.38;5052260;28;20051;-57
2023/04/04 06:37:03;;;;;;;13.23;10.02;;;;;;;-1.52;100.00;102886.22;5052204;28;20380;-57
2023/04/04 06:39:30;;;;;;;14.38;9.55;;;;;;;-1.43;100.00;102881.28;5052571;28;20399;-57
2023/04/04 06:41:55;;;;;;;17.27;10.02;;;;;;;-1.30;100.00;102881.00;5051784;28;20080;-57
2023/04/04 06:44:21;;;;;;;13.88;9.50;;;;;;;-1.12;100.00;102885.56;5052496;28;20431;-57
2023/04/04 06:46:47;;;;;;;15.63;10.48;;;;;;;-1.09;100.00;102885.88;5052769;28;20098;-57
2023/04/04 06:49:12;;;;;;;14.02;8.95;;;;;;;-0.90;100.00;102882.84;5051784;28;20027;-57
2023/04/04 06:51:39;;;;;;;12.57;8.63;;;;;;;-0.76;100.00;102892.84;5052387;28;20112;-57
2023/04/04 06:54:05;;;;;;;13.30;9.32;;;;;;;-0.67;100.00;102893.81;5052162;28;20083;-57
2023/04/04 06:56:30;;;;;;;13.32;9.25;;;;;;;-0.54;100.00;102892.63;5051974;28;20033;-57
2023/04/04 06:58:55;;;;;;;12.45;8.82;;;;;;;-0.36;100.00;102884.44;5052061;28;20440;-57
2023/04/04 07:01:21;;;;;;;11.38;7.65;;;;;;;-0.19;100.00;102886.25;5052384;28;20025;-57
2023/04/04 07:03:46;;;;;;;14.75;8.25;;;;;;;-0.11;99.16;102899.72;5051805;28;20021;-57
2023/04/04 07:06:11;;;;;;;13.43;7.82;;;;;;;0.04;97.93;102897.00;5052302;28;20033;-57
2023/04/04 07:08:36;;;;;;;16.83;8.02;;;;;;;0.20;95.59;102895.34;5055922;28;20150;-57
2023/04/04 07:11:02;;;;;;;12.82;8.00;;;;;;;0.35;95.48;102902.75;5055176;28;20104;-57
2023/04/04 07:13:28;;;;;;;12.85;7.90;;;;;;;0.58;93.73;102903.50;5056509;28;20496;-57
2023/04/04 07:15:53;;;;;;;13.52;7.70;;;;;;;0.68;93.40;102894.31;5056202;28;20025;-57
2023/04/04 07:18:18;;;;;;;13.23;8.20;;;;;;;0.90;91.28;102894.84;5055570;28;20017;-57
2023/04/04 07:20:47;;;;;;;10.98;7.10;;;;;;;1.00;90.62;102894.16;5056340;28;20385;-57
2023/04/04 07:23:14;;;;;;;12.70;7.28;;;;;;;1.10;89.39;102891.81;5055913;28;20037;-57
2023/04/04 07:25:39;;;;;;;9.98;7.18;;;;;;;1.25;88.80;102898.44;5055323;28;20041;-57
2023/04/04 07:28:05;;;;;;;12.07;7.32;;;;;;;1.36;88.87;102879.16;5055958;28;20361;-57
2023/04/04 07:30:32;;;;;;;12.70;7.65;;;;;;;1.44;86.42;102885.91;5055646;28;20102;-57
2023/04/04 07:33:01;;;;;;;10.90;7.10;;;;;;;1.56;86.37;102883.69;5055291;28;20082;-57
2023/04/04 07:35:26;;;;;;;13.95;7.30;;;;;;;1.68;85.15;102880.53;5055900;28;20066;-57
2023/04/04 07:37:52;;;;;;;10.25;6.85;;;;;;;1.85;86.29;102875.47;5055186;28;20053;-57
2023/04/04 07:40:17;;;;;;;11.90;7.30;;;;;;;2.07;83.98;102883.53;5055308;28;20017;-57
2023/04/04 07:42:49;;;;;;;10.57;6.85;;;;;;;2.14;83.01;102883.41;5055963;28;20021;-57
2023/04/04 07:45:15;;;;;;;12.35;8.13;;;;;;;2.24;83.08;102882.63;5055006;28;20032;-57
2023/04/04 07:47:45;;;;;;;11.65;7.18;;;;;;;2.39;83.97;102882.28;5055472;28;20028;-55
2023/04/04 07:50:14;;;;;;;12.07;7.30;;;;;;;2.78;81.93;102876.66;5055392;28;20040;-55
2023/04/04 07:52:40;;;;;;;16.00;7.28;;;;;;;2.71;81.55;102875.19;5055019;28;20025;-55
2023/04/04 07:55:07;;;;;;;11.38;7.43;;;;;;;2.88;82.09;102881.88;5055065;28;20107;-55
2023/04/04 07:57:36;;;;;;;8.93;6.13;;;;;;;2.87;78.37;102882.59;5055579;28;20082;-56
2023/04/04 08:00:04;;;;;;;15.35;7.22;;;;;;;2.98;77.91;102883.59;5054259;28;20025;-56
2023/04/04 08:02:29;;;;;;;11.52;6.70;;;;;;;3.05;77.97;102885.09;5055492;28;20056;-55
2023/04/04 08:04:54;;;;;;;10.25;6.85;;;;;;;3.20;79.62;102883.97;5055157;28;20033;-56
2023/04/04 08:07:20;;;;;;;11.52;6.90;;;;;;;3.25;77.25;102890.38;5054534;28;20032;-58
2023/04/04 08:09:45;;;;;;;10.10;6.70;;;;;;;3.37;76.73;102892.25;5055508;28;20025;-56
2023/04/04 08:12:10;;;;;;;9.77;6.30;;;;;;;3.48;75.82;102891.56;5054912;28;20446;-56
2023/04/04 08:14:36;;;;;;;7.68;5.70;;;;;;;3.74;72.60;102882.84;5054217;28;20040;-56
2023/04/04 08:17:01;;;;;;;8.43;4.88;;;;;;;3.84;69.04;102885.47;5054814;28;20024;-56
2023/04/04 08:19:27;;;;;;;8.90;5.70;;;;;;;3.94;66.31;102895.75;5053666;28;20021;-56
2023/04/04 08:21:52;;;;;;;10.73;5.25;;;;;;;4.03;65.06;102889.66;5054213;28;20534;-56
2023/04/04 08:24:21;;;;;;;9.43;4.65;;;;;;;4.24;64.31;102883.03;5054651;28;20469;-56
2023/04/04 08:26:46;;;;;;;7.20;4.30;;;;;;;4.11;63.15;102888.69;5054571;28;20100;-56
2023/04/04 08:29:11;;;;;;;10.35;5.35;;;;;;;4.35;65.15;102881.41;5054383;28;20183;-56
2023/04/04 08:31:38;;;;;;;7.10;4.00;;;;;;;4.35;62.66;102884.88;5054938;28;20036;-55
2023/04/04 08:34:06;;;;;;;8.95;4.57;;;;;;;4.44;64.05;102883.13;5054051;28;20051;-56
2023/04/04 08:36:31;;;;;;;8.18;4.20;;;;;;;4.47;61.17;102882.50;5054519;28;20063;-56
2023/04/04 08:38:57;;;;;;;9.23;4.15;;;;;;;4.64;57.42;102870.28;5054595;28;20499;-56
2023/04/04 08:41:22;;;;;;;8.02;3.50;;;;;;;4.69;58.07;102875.03;5054326;28;20028;-56
2023/04/04 08:43:53;;;;;;;11.43;4.38;;;;;;;4.73;59.56;102871.97;5054582;28;20099;-54
2023/04/04 08:46:20;;;;;;;9.57;3.30;;;;;;;4.99;53.76;102868.19;5054627;28;20025;-56
2023/04/04 08:48:47;;;;;;;7.05;3.55;;;;;;;5.05;53.63;102865.28;5054031;28;20021;-55
2023/04/04 08:51:13;;;;;;;7.63;4.03;;;;;;;5.18;55.16;102873.19;5054009;28;20083;-55
2023/04/04 08:53:39;;;;;;;6.95;3.55;;;;;;;5.19;57.04;102862.22;5054715;28;20029;-55
2023/04/04 08:56:04;;;;;;;11.88;4.03;;;;;;;5.25;52.40;102870.41;5053490;28;20029;-55
2023/04/04 08:58:29;;;;;;;10.90;3.53;;;;;;;5.33;54.26;102865.00;5054728;28;20056;-55
2023/04/04 09:00:55;;;;;;;7.15;3.30;;;;;;;5.66;54.08;102858.34;5054025;28;20105;-56
2023/04/04 09:03:25;;;;;;;8.50;3.30;;;;;;;5.59;53.24;102862.97;5053377;28;20071;-56
2023/04/04 09:05:51;;;;;;;6.03;3.05;;;;;;;5.77;49.19;102863.56;5054271;28;20063;-55
2023/04/04 09:08:17;;;;;;;6.20;3.35;;;;;;;6.10;51.70;102864.53;5054058;28;20048;-55
2023/04/04 09:10:44;;;;;;;7.03;2.95;;;;;;;5.97;50.92;102869.41;5053518;28;20477;-56
2023/04/04 09:13:10;;;;;;;5.82;2.88;;;;;;;6.06;50.68;102861.63;5053886;28;20108;-56
2023/04/04 09:15:42;;;;;;;7.20;3.47;;;;;;;6.07;48.67;102864.31;5053959;28;20116;-55
2023/04/04 09:18:07;;;;;;;5.65;2.92;;;;;;;6.09;50.23;102869.53;5052992;28;20025;-55
2023/04/04 09:20:44;;;;;;;6.22;2.97;;;;;;;6.35;48.28;102865.59;5054052;28;20035;-55
2023/04/04 09:23:19;;;;;;;9.00;2.90;;;;;;;6.35;49.75;102865.59;5053256;28;20046;-56
2023/04/04 09:25:52;;;;;;;8.20;3.15;;;;;;;6.73;48.92;102866.06;5053637;28;20028;-55
2023/04/04 09:28:18;;;;;;;8.10;3.40;;;;;;;6.49;46.35;102861.56;5053557;28;20120;-55
2023/04/04 09:30:47;;;;;;;5.63;2.80;;;;;;;6.67;47.25;102867.25;5052766;28;20472;-55
2023/04/04 09:33:14;;;;;;;8.90;2.83;;;;;;;6.73;47.25;102862.63;5053374;28;20047;-56
2023/04/04 09:35:44;;;;;;;7.65;2.97;;;;;;;6.52;45.33;102862.72;5053518;28;20423;-56
2023/04/04 09:38:10;;;;;;;5.78;2.90;;;;;;;6.78;46.17;102862.94;5052660;28;20112;-56
2023/04/04 09:40:36;;;;;;;6.97;3.08;;;;;;;6.75;45.20;102861.94;5053505;28;20530;-56
2023/04/04 09:43:05;;;;;;;6.90;3.55;;;;;;;7.48;46.05;102862.31;5053166;28;20033;-56
2023/04/04 09:45:38;;;;;;;6.80;3.03;;;;;;;7.44;44.17;102868.00;5052914;28;20127;-55
2023/04/04 09:48:05;;;;;;;8.10;3.40;;;;;;;7.98;45.31;102858.19;5053328;28;20031;-56
2023/04/04 09:50:32;;;;;;;8.15;3.55;;;;;;;8.59;43.97;102855.72;5053647;28;20056;-56
2023/04/04 09:52:59;;;;;;;6.38;3.35;;;;;;;9.05;42.96;102849.47;5052291;28;20021;-56
2023/04/04 09:55:32;;;;;;;6.47;3.03;;;;;;;9.34;43.46;102847.09;5053130;28;20040;-56
2023/04/04 09:57:57;;;;;;;8.80;2.90;;;;;;;9.82;40.12;102845.94;5052840;28;20465;-56
2023/04/04 10:00:29;;;;;;;6.80;3.30;;;;;;;10.37;40.08;102847.72;5052637;28;20047;-56
2023/04/04 10:02:57;;;;;;;5.82;2.95;;;;;;;11.11;38.71;102844.47;5052781;28;20045;-56
2023/04/04 10:05:22;;;;;;;;;;;;;;;11.64;44.75;102844.94;5053114;28;20061;-55
2023/04/04 10:07:48;;;;;;;5.82;2.88;;;;;;;12.22;37.21;102843.88;5052823;28;19924;-55
2023/04/04 10:10:14;;;;;;;6.07;2.60;;;;;;;12.65;36.64;102835.84;5052787;28;20449;-56
2023/04/04 10:12:40;;;;;;;7.85;3.55;;;;;;;12.46;34.44;102840.03;5052783;28;20021;-56
2023/04/04 10:15:07;;;;;;;6.53;2.92;;;;;;;12.77;36.15;102843.34;5052571;28;20070;-56
2023/04/04 10:17:38;;;;;;;5.50;2.83;;;;;;;13.38;32.69;102840.47;5053191;28;20033;-56
2023/04/04 10:20:05;;;;;;;6.68;2.83;;;;;;;13.64;33.53;102833.13;5052119;28;20048;-56
2023/04/04 10:22:35;;;;;;;5.88;2.88;;;;;;;13.12;32.58;102827.06;5052716;28;20082;-56
2023/04/04 10:25:01;;;;;;;5.82;2.58;;;;;;;13.00;32.76;102824.75;5052403;28;20055;-54
2023/04/04 10:27:27;;;;;;;7.97;3.20;;;;;;;12.59;36.06;102827.75;5052173;28;20102;-55
2023/04/04 10:29:52;;;;;;;7.32;3.15;;;;;;;13.02;34.05;102825.69;5053005;28;20400;-56
2023/04/04 10:32:37;;;;;;;6.93;2.70;;;;;;;14.04;34.42;102829.84;5052416;28;20025;-56
2023/04/04 10:35:06;;;;;;;6.68;2.53;;;;;;;14.12;31.29;102823.28;5051675;28;20021;-56
2023/04/04 10:37:56;;;;;;;5.75;2.67;;;;;;;13.98;32.64;102830.44;5052628;28;20105;-56
2023/04/04 10:40:25;;;;;;;6.38;2.72;;;;;;;14.02;31.30;102823.72;5052128;28;20045;-56
2023/04/04 10:42:50;;;;;;;6.35;2.50;;;;;;;14.66;30.71;102819.72;5051720;28;20033;-56
2023/04/04 10:45:16;;;;;;;6.13;2.40;;;;;;;14.90;29.65;102821.59;5052364;28;20542;-56
2023/04/04 10:47:43;;;;;;;6.60;2.50;;;;;;;14.05;29.42;102815.19;5051941;28;20119;-56
2023/04/04 10:50:10;;;;;;;6.70;2.38;;;;;;;14.78;29.78;102812.47;5052227;28;20025;-57
2023/04/04 10:52:38;;;;;;;5.20;2.50;;;;;;;14.13;28.67;102814.69;5052654;28;20052;-56
2023/04/04 10:55:06;;;;;;;7.10;2.53;;;;;;;14.23;29.91;102804.75;5051531;28;20472;-56
2023/04/04 10:57:35;;;;;;;4.68;2.45;;;;;;;14.71;30.02;102812.13;5052289;28;20480;-56
2023/04/04 11:00:09;;;;;;;6.15;2.67;;;;;;;15.52;29.48;102805.97;5052221;28;20063;-56
2023/04/04 11:02:53;;;;;;;4.85;2.33;;;;;;;16.20;30.00;102806.06;5051549;28;20041;-57
2023/04/04 11:05:21;;;;;;;7.30;2.78;;;;;;;16.57;27.22;102799.63;5052455;28;20025;-56
2023/04/04 11:07:52;;;;;;;7.03;2.75;;;;;;;16.32;27.15;102803.94;5052541;28;20025;-56
2023/04/04 11:10:22;;;;;;;4.57;2.50;;;;;;;15.87;27.19;102801.34;5051374;28;20108;-56
2023/04/04 11:12:53;;;;;;;5.18;2.50;;;;;;;16.39;26.58;102795.50;5052345;28;20067;-57
2023/04/04 11:15:21;;;;;;;5.22;2.25;;;;;;;16.55;25.74;102788.25;5052156;28;20091;-57
2023/04/04 11:17:55;;;;;;;6.03;2.20;;;;;;;16.85;26.03;102782.34;5051944;28;20018;-57